Home > Products > Valid Products > TAF

000
FTUS42 TJSJ 252000 AAA
TAFJMZ
TAF AMD
TJMZ 252003Z 2520/2618 VRB06KT P6SM VCTS BKN030CB
     FM252030 09005KT P6SM VCSH BKN030
     FM252300 06006KT P6SM SCT025 SCT040
     FM261530 27010KT P6SM SCT025 BKN040=



000
FTUS42 TJSJ 251900 AAA
TAFJPS
TAF AMD
TJPS 251921Z 2519/2618 11015G20KT P6SM FEW030
     FM252300 09007KT P6SM FEW030 SCT060
     FM261500 13012KT P6SM FEW030 SCT060
      AMD NOT SKED TIL 260300=



000
FTUS42 TJSJ 251900 AAA
TAFIST
TAF AMD
TIST 251920Z 2519/2618 12015G18KT P6SM BKN030
     FM252300 08006KT P6SM FEW025
     FM261400 09012KT P6SM SCT025=



000
FTUS42 TJSJ 251900 AAB
TAFJBQ
TAF AMD
TJBQ 251919Z 2519/2618 08020G26KT P6SM VCTS SCT020CB BKN030
     FM252100 09012G18KT P6SM SCT025
     FM261400 08013KT P6SM SCT025=



000
FTUS42 TJSJ 251800 AAA
TAFJSJ
TAF AMD
TJSJ 251812Z 2518/2618 06015G21KT P6SM FEW025 SCT030 SCT040
     FM252200 10012KT P6SM SCT030
     FM261300 08014KT P6SM VCSH SCT025 BKN050=



000
FTUS42 TJSJ 251800 AAA
TAFJBQ
TAF AMD
TJBQ 251812Z 2518/2618 08022G26KT P6SM SCT024
     FM252100 09012G18KT P6SM SCT025
     FM261400 08013KT P6SM SCT025=



000
FTUS42 TJSJ 251700
TAFKPK
TAF
TKPK 251738Z 2518/2618 06016KT P6SM FEW018
     FM252300 09009KT P6SM FEW019
     FM261400 11014KT P6SM FEW022=



000
FTUS42 TJSJ 251700
TAFJSJ
TAF
TJSJ 251738Z 2518/2618 09007KT P6SM FEW023 SCT028 SCT045
     FM252200 10008KT P6SM SCT030
     FM261300 08014KT P6SM VCSH SCT025 BKN050=



000
FTUS42 TJSJ 251700
TAFJMZ
TAF
TJMZ 251738Z 2518/2618 09005KT P6SM BKN030
     FM251830 29010KT P6SM VCTS BKN030CB
      TEMPO 2519/2521 TSRA BKN020CB
     FM252300 06006KT P6SM SCT025 SCT040
     FM261530 27010KT P6SM SCT025 BKN040=



000
FTUS42 TJSJ 251700
TAFJPS
TAF
TJPS 251738Z 2518/2618 16020KT P6SM FEW030
     FM252300 09007KT P6SM FEW030 SCT060
     FM261500 13012KT P6SM FEW030 SCT060
      AMD NOT SKED TIL 260300=



000
FTUS42 TJSJ 251700
TAFJBQ
TAF
TJBQ 251738Z 2518/2618 11007KT P6SM SCT018 SCT022 SCT028
     FM251900 08018KT P6SM VCSH SCT025
     FM252100 09008KT P6SM SCT025
     FM261400 08013KT P6SM SCT025=



000
FTUS42 TJSJ 251700
TAFISX
TAF
TISX 251738Z 2518/2618 10017G23KT P6SM SCT030
     FM252300 08006KT P6SM FEW025
     FM261400 10015KT P6SM VCSH SCT025=



000
FTUS42 TJSJ 251700
TAFIST
TAF
TIST 251738Z 2518/2618 09011G18KT P6SM BKN030
     FM252300 08006KT P6SM FEW025
     FM261400 09012KT P6SM SCT025=



000
FTUS42 TJSJ 251700
TAFNCM
TAF
TNCM 251738Z 2518/2618 09012KT P6SM FEW023
     FM252300 09009KT P6SM FEW019
     FM261400 11014KT P6SM FEW022=



000
FTUS42 TJSJ 251100
TAFJPS
TAF
TJPS 251127Z 2512/2612 06008KT P6SM FEW030
     FM251500 13012KT P6SM FEW030 SCT060
     FM252300 09007KT P6SM FEW030 SCT060
      AMD NOT SKED TIL 260300=



000
FTUS42 TJSJ 251100
TAFNCM
TAF
TNCM 251127Z 2512/2612 08011KT P6SM FEW019
     FM251400 11014KT P6SM FEW022
     FM252300 09009KT P6SM FEW019=



000
FTUS42 TJSJ 251100
TAFJMZ
TAF
TJMZ 251127Z 2512/2612 06006KT P6SM FEW025
     FM251530 27010KT P6SM SCT025 BKN040
     FM251830 29010KT P6SM VCTS BKN030CB
     FM252300 06006KT P6SM SCT025 SCT040
      AMD NOT SKED TIL 251600=



000
FTUS42 TJSJ 251100
TAFJSJ
TAF
TJSJ 251127Z 2512/2612 09007KT P6SM FEW023 SCT030 SCT060
     FM251300 08014KT P6SM VCSH SCT025 BKN050
     FM252200 10008KT P6SM SCT030=



000
FTUS42 TJSJ 251100
TAFKPK
TAF
TKPK 251127Z 2512/2612 08016KT P6SM BKN015
     FM251400 11014KT P6SM FEW022
     FM252300 09009KT P6SM FEW019=



000
FTUS42 TJSJ 251100
TAFJBQ
TAF
TJBQ 251127Z 2512/2612 11007KT P6SM SCT018 SCT022 SCT028
     FM251400 08013KT P6SM SCT025
     FM251800 08018KT P6SM VCSH SCT025
     FM252300 09008KT P6SM SCT025
      AMD NOT SKED 2602/2611=



000
FTUS42 TJSJ 251100
TAFISX
TAF
TISX 251127Z 2512/2612 06008KT P6SM FEW025
     FM251400 10015KT P6SM VCSH SCT025
     FM252300 08006KT P6SM FEW025=



000
FTUS42 TJSJ 251100
TAFIST
TAF
TIST 251127Z 2512/2612 10010KT P6SM BKN018
     FM251400 09012KT P6SM SCT025=



000
FTUS42 TJSJ 251100 AAA
TAFKPK
TAF AMD
TKPK 251102Z 2511/2606 07013KT P6SM SCT020
      TEMPO 2511/2512 BKN015
      AMD NOT SKED TIL 251100=



000
FTUS42 TJSJ 250500
TAFIST
TAF
TIST 250537Z 2506/2606 09010KT P6SM FEW025 BKN050
     FM251300 10015KT P6SM SCT025
     FM252300 09008KT P6SM FEW025=



000
FTUS42 TJSJ 250500
TAFJBQ
TAF
TJBQ 250537Z 2506/2606 10015KT P6SM SCT025
     FM251400 08018KT P6SM SCT025
     FM252330 09010KT P6SM SCT025
      AMD NOT SKED TIL 251100=



000
FTUS42 TJSJ 250500
TAFJPS
TAF
TJPS 250537Z 2506/2606 07005KT P6SM FEW030 BKN050
     FM251500 13012KT P6SM FEW030 SCT060
     FM252330 08007KT P6SM FEW030 SCT060
      AMD NOT SKED 2511/2603=



000
FTUS42 TJSJ 250500
TAFNCM
TAF
TNCM 250537Z 2506/2606 09012KT P6SM SCT020=



000
FTUS42 TJSJ 250500
TAFJMZ
TAF
TJMZ 250537Z 2506/2606 06006KT P6SM FEW025
     FM251530 27010KT P6SM VCSH SCT025 BKN040
     FM252200 06006KT P6SM SCT025 SCT040
      AMD NOT SKED TIL 251600=



000
FTUS42 TJSJ 250500
TAFJSJ
TAF
TJSJ 250537Z 2506/2606 08005KT P6SM SCT025 BKN050
     FM251400 07015KT P6SM SCT025
     FM252200 08008KT P6SM SCT025=



000
FTUS42 TJSJ 250500
TAFISX
TAF
TISX 250537Z 2506/2606 07008KT P6SM FEW025
     FM251300 10014KT P6SM SCT025
     FM252300 08008KT P6SM FEW025=



000
FTUS42 TJSJ 250500
TAFKPK
TAF
TKPK 250537Z 2506/2606 07013KT P6SM SCT020
      AMD NOT SKED TIL 251100=



000
FTUS42 TJSJ 250300 AAA
TAFJMZ
TAF AMD
TJMZ 250311Z 2503/2524 09008KT P6SM SCT030
     FM251500 25009KT P6SM SCT030 SCT040
     FM251800 VRB10KT P6SM VCSH BKN040
     FM252200 09008KT P6SM FEW030
      AMD NOT SKED TIL 251100=



000
FTUS42 TJSJ 250300 AAA
TAFJPS
TAF AMD
TJPS 250310Z 2503/2524 VRB05KT P6SM SCT030 BKN050
     FM251400 13010G15KT P6SM VCSH SCT030 BKN040
     FM252300 07010G20KT P6SM SCT025 SCT050
      AMD NOT SKED TIL 250300=



000
FTUS42 TJSJ 250100 AAA
TAFJSJ
TAF AMD
TJSJ 250112Z 2501/2524 07008KT P6SM FEW030 SCT050
     FM251300 08015G22KT P6SM FEW030 SCT050
     FM251800 09014G20KT P6SM VCSH SCT030
     FM252300 09010KT P6SM VCSH FEW030 SCT060=



000
FTUS42 TJSJ 242300
TAFISX
TAF
TISX 242327Z 2500/2524 08010KT P6SM SCT030
     FM251200 10016G24KT P6SM VCSH SCT030
     FM252200 09014KT P6SM VCSH SCT030=



000
FTUS42 TJSJ 242300
TAFKPK
TAF
TKPK 242327Z 2500/2524 07014KT P6SM VCSH FEW020 SCT040
     FM251300 07015KT P6SM VCSH SCT020 SCT040
     FM252200 08012KT P6SM FEW018
      AMD NOT SKED 2502/2511=



000
FTUS42 TJSJ 242300
TAFIST
TAF
TIST 242327Z 2500/2524 10015KT P6SM BKN020
     FM251200 11015G23KT P6SM VCSH FEW030
     FM252300 09013KT P6SM VCSH SCT030=



000
FTUS42 TJSJ 242300
TAFJMZ
TAF
TJMZ 242327Z 2500/2524 09008KT P6SM VCSH SCT030
     FM251500 25009KT P6SM SCT030 SCT040
     FM251800 VRB10KT P6SM VCSH BKN040
     FM252200 09008KT P6SM FEW030
      AMD NOT SKED TIL 251100=



000
FTUS42 TJSJ 242300
TAFJSJ
TAF
TJSJ 242327Z 2500/2524 07012G18KT P6SM FEW030 SCT050
     FM251300 08015G22KT P6SM FEW030 SCT050
     FM251800 09014G20KT P6SM VCSH SCT030
     FM252300 09010KT P6SM VCSH FEW030 SCT060=



000
FTUS42 TJSJ 242300
TAFJPS
TAF
TJPS 242327Z 2500/2524 12012G20KT P6SM VCSH SCT030 BKN050
     FM251400 13010G15KT P6SM VCSH SCT030 BKN040
     FM252300 07010G20KT P6SM SCT025 SCT050
      AMD NOT SKED TIL 250300=



000
FTUS42 TJSJ 242300
TAFJBQ
TAF
TJBQ 242327Z 2500/2524 08017G25KT P6SM SCT020
     FM250100 09012KT P6SM SCT020
     FM251330 07017G25KT P6SM SCT020
     FM252200 08015KT P6SM SCT025
      AMD NOT SKED 2502/2511=



000
FTUS42 TJSJ 242300
TAFNCM
TAF
TNCM 242327Z 2500/2524 09012KT P6SM VCSH FEW020
     FM251300 08014KT P6SM VCSH SCT020 SCT040
     FM252300 10010KT P6SM FEW018=



000
FTUS42 TJSJ 242100 AAA
TAFISX
TAF AMD
TISX 242108Z 2421/2518 09015G20KT P6SM VCSH SCT030 BKN040
     FM250000 09014KT P6SM VCSH SCT030
     FM251200 10016G24KT P6SM FEW030=



000
FTUS42 TJSJ 242100 AAA
TAFKPK
TAF AMD
TKPK 242104Z 2421/2518 07016KT P6SM VCSH FEW020 SCT040
     FM250000 08015KT P6SM VCSH FEW018=



000
FTUS42 TJSJ 242100 AAA
TAFNCM
TAF AMD
TNCM 242104Z 2421/2518 08012KT P6SM VCSH SCT020 SCT045
     FM242300 08014KT P6SM VCSH FEW018=



000
FTUS42 TJSJ 242100 AAA
TAFJMZ
TAF AMD
TJMZ 242103Z 2421/2518 10006KT P6SM SCT030
     FM242200 09008KT P6SM FEW030
     FM251500 25009KT P6SM SCT030
      AMD NOT SKED 2423/2511=



000
FTUS42 TJSJ 241900 AAA
TAFIST
TAF AMD
TIST 241910Z 2419/2518 10018G25KT P6SM VCSH BKN024 BKN050
     FM242300 09013KT P6SM VCSH SCT030
     FM251200 11015G23KT P6SM FEW030=



000
FTUS42 TJSJ 241700
TAFJMZ
TAF
TJMZ 241735Z 2418/2518 27008KT P6SM SHRA SCT035
      TEMPO 2418/2422 3SM TSRA BKN030CB
     FM242200 09008KT P6SM SCT035
     FM251500 25009KT P6SM SCT030
      AMD NOT SKED 2423/2511=



000
FTUS42 TJSJ 241700
TAFJBQ
TAF
TJBQ 241735Z 2418/2518 07023G32KT P6SM SCT025
     FM242200 08017KT P6SM SCT025
     FM250100 09012KT P6SM VCSH SCT020
     FM251330 07017G25KT P6SM SCT020=



000
FTUS42 TJSJ 241700
TAFISX
TAF
TISX 241735Z 2418/2518 10019G27KT P6SM VCSH SCT035 SCT050
      TEMPO 2421/2424 3SM TSRA BKN025CB
     FM250000 09014KT P6SM VCSH SCT030
     FM251200 10016G24KT P6SM FEW030=



000
FTUS42 TJSJ 241700
TAFIST
TAF
TIST 241735Z 2418/2518 11018G26KT P6SM VCSH SCT035 BKN050
     FM242300 09013KT P6SM VCSH SCT030
     FM251200 11015G23KT P6SM FEW030=



000
FTUS42 TJSJ 241700
TAFJPS
TAF
TJPS 241735Z 2418/2518 12012G20KT P6SM VCSH FEW030
     FM242200 07007KT P6SM SCT025
     FM251400 13010KT P6SM FEW030
      AMD NOT SKED TIL 250300=



000
FTUS42 TJSJ 241700
TAFNCM
TAF
TNCM 241735Z 2418/2518 08016G25KT P6SM VCSH SCT018
     FM242300 08014KT P6SM VCSH FEW018=



000
FTUS42 TJSJ 241700
TAFJSJ
TAF
TJSJ 241735Z 2418/2518 06019G27KT P6SM FEW030
     FM242230 09011KT P6SM VCSH SCT030
     FM251300 07015G23KT P6SM FEW030=



000
FTUS42 TJSJ 241700
TAFKPK
TAF
TKPK 241735Z 2418/2518 07015G24KT P6SM VCSH SCT022
      TEMPO 2418/2422 5SM SHRA BKN018
     FM250000 08015KT P6SM VCSH FEW018=



000
FTUS42 TJSJ 241600 AAA
TAFISX
TAF AMD
TISX 241611Z 2416/2512 08017G27KT P6SM VCSH SCT035 BKN045
      TEMPO 2421/2424 3SM TSRA BKN015CB
     FM250000 09013KT P6SM VCTS SCT030CB SCT050=



000
FTUS42 TJSJ 241600 AAA
TAFKPK
TAF AMD
TKPK 241609Z 2416/2512 07015G25KT P6SM VCSH SCT020 BKN045
      TEMPO 2418/2422 5SM TSRA BKN018CB
     FM250000 08014KT P6SM VCSH FEW018=



000
FTUS42 TJSJ 241600 AAA
TAFNCM
TAF AMD
TNCM 241606Z 2416/2512 08016G25KT P6SM VCSH SCT018
      TEMPO 2418/2422 5SM SHRA BKN015
     FM242300 08014KT P6SM VCSH FEW018=



000
FTUS42 TJSJ 241100 RRA
TAFJMZ
TAF
TJMZ 241144Z 2412/2512 09004KT P6SM FEW040
     FM241530 29010KT P6SM VCSH SCT025 BKN040
     FM241800 09006KT P6SM VCTS SCT025CB BKN040
     FM242330 VRB05KT P6SM SCT025 SCT070=



000
FTUS42 TJSJ 241100 RRA
TAFIST
TAF
TIST 241144Z 2412/2512 10013G20KT P6SM VCSH FEW025
     FM241800 09015G25KT P6SM -SHRA SCT025 BKN050
     FM242300 09010G20KT P6SM VCTS SCT025CB SCT050=



000
FTUS42 TJSJ 241100 RRA
TAFJPS
TAF
TJPS 241144Z 2412/2512 00000KT P6SM FEW030
     FM241500 13012G20KT P6SM VCSH SCT030 SCT060
     FM242200 05005KT P6SM -SHRA SCT020 BKN050=



000
FTUS42 TJSJ 241100 RRA
TAFJBQ
TAF
TJBQ 241144Z 2412/2512 11012KT P6SM VCSH SCT025
     FM241400 08012G22KT P6SM FEW025
     FM241700 09016G26KT P6SM VCSH SCT020 SCT030=



000
FTUS42 TJSJ 241100 RRA
TAFKPK
TAF
TKPK 241144Z 2412/2512 06016KT P6SM VCSH SCT016
     FM241300 07015G25KT P6SM VCTS BKN018CB
     FM241600 07015G25KT P6SM SHRA BKN015 BKN030=



000
FTUS42 TJSJ 241100 RRA
TAFJSJ
TAF
TJSJ 241144Z 2412/2512 07011KT P6SM VCSH SCT025 SCT050
     FM241600 06015G25KT P6SM VCSH SCT030 SCT050
     FM242230 09010KT P6SM -SHRA SCT020 BKN050=



000
FTUS42 TJSJ 241100 RRA
TAFNCM
TAF
TNCM 241144Z 2412/2512 08009KT P6SM VCSH FEW021
     FM241300 10013G25KT P6SM VCTS BKN019CB
     FM241600 07015G25KT P6SM SHRA BKN015 BKN030=



000
FTUS42 TJSJ 241100 RRA
TAFISX
TAF
TISX 241144Z 2412/2512 07010KT P6SM FEW090
     FM241400 11016G25KT P6SM VCSH SCT030 SCT050
     FM241800 09015G25KT P6SM -SHRA SCT025 BKN050
     FM242300 09010KT P6SM VCTS SCT030CB SCT050=



000
FTUS42 TJSJ 240500 RRA
TAFIST
TAF
TIST 240544Z 2406/2506 10011KT P6SM VCSH FEW025 OVC035
     FM241400 09011KT P6SM VCSH SCT030 BKN050
     FM241800 09015G25KT P6SM -SHRA SCT025 BKN050
     FM242300 09010G20KT P6SM VCTS SCT025CB SCT050=



000
FTUS42 TJSJ 240500 RRA
TAFKPK
TAF
TKPK 240544Z 2406/2506 07013KT P6SM VCSH SCT019
     FM241000 07015G25KT P6SM VCTS BKN018CB
     FM241600 07015G25KT P6SM SHRA BKN015 BKN030
      AMD NOT SKED TIL 241100=



000
FTUS42 TJSJ 240500 RRA
TAFISX
TAF
TISX 240544Z 2406/2506 08013KT P6SM SCT026
     FM241400 11016G25KT P6SM VCSH SCT030 SCT050
     FM241800 09015G25KT P6SM -SHRA SCT025 BKN050
     FM242300 09010KT P6SM VCTS SCT030CB SCT050=



000
FTUS42 TJSJ 240500 RRA
TAFNCM
TAF
TNCM 240544Z 2406/2506 09010KT P6SM VCSH SCT020
     FM241000 10013G25KT P6SM VCTS BKN019CB
     FM241600 07015G25KT P6SM SHRA BKN015 BKN030=



000
FTUS42 TJSJ 240500 RRA
TAFJBQ
TAF
TJBQ 240544Z 2406/2506 11007KT P6SM SCT021 SCT026
     FM241400 08012G22KT P6SM FEW025
     FM241700 09016G26KT P6SM VCSH SCT020 SCT030
      AMD NOT SKED TIL 241100=



000
FTUS42 TJSJ 240500 RRA
TAFJSJ
TAF
TJSJ 240544Z 2406/2506 07012KT P6SM FEW028 SCT035 SCT045
     FM241300 08012KT P6SM VCSH SCT025
     FM241600 06015G25KT P6SM VCSH SCT030 SCT050
     FM242230 09010KT P6SM -SHRA SCT020 BKN050=



000
FTUS42 TJSJ 240500 RRA
TAFJPS
TAF
TJPS 240544Z 2406/2506 09005KT P6SM FEW030
     FM241500 13012G20KT P6SM VCSH SCT030 SCT060
     FM242200 05005KT P6SM -SHRA SCT020 BKN050=



000
FTUS42 TJSJ 240500 RRA
TAFJMZ
TAF
TJMZ 240544Z 2406/2506 VRB05KT P6SM FEW020
     FM241530 29010KT P6SM VCSH SCT025 BKN040
     FM241800 09006KT P6SM VCTS SCT025CB BKN040
     FM242330 VRB05KT P6SM SCT025 SCT070
      AMD NOT SKED TIL 241100=



000
FTUS42 TJSJ 240200 AAA
TAFJBQ
TAF AMD
TJBQ 240231Z 2403/2424 10008KT P6SM SKC
     FM241400 08012G22KT P6SM FEW025
     FM241700 09016G26KT P6SM VCSH SCT020 SCT030
      AMD NOT SKED TIL 241100=



000
FTUS42 TJSJ 240200 AAA
TAFJSJ
TAF AMD
TJSJ 240229Z 2402/2424 07008KT P6SM FEW030
     FM241300 08012KT P6SM VCSH SCT025
     FM241600 06015G25KT P6SM VCSH SCT030 SCT050
     FM242230 09010KT P6SM -SHRA SCT020 BKN050=



000
FTUS42 TJSJ 232300 CCA
TAFNCM
TAF COR
TNCM 232334Z 2400/2424 08009KT P6SM VCSH BKN019
     FM240100 09009KT P6SM VCSH SCT021
     FM241500 10013G25KT P6SM VCSH BKN019=



000
FTUS42 TJSJ 232300
TAFJMZ
TAF
TJMZ 232331Z 2400/2424 VRB05KT P6SM FEW020
     FM241530 29010KT P6SM VCSH SCT025 BKN040
     FM241800 09006KT P6SM VCTS SCT025CB BKN040
     FM242330 VRB05KT P6SM SCT025 SCT070
      AMD NOT SKED TIL 241100=



000
FTUS42 TJSJ 232300
TAFISX
TAF
TISX 232331Z 2400/2424 06012KT P6SM SCT030
     FM240100 08010KT P6SM FEW030
     FM241400 11016G25KT P6SM VCSH SCT030 SCT050
     FM242300 09010KT P6SM VCSH SCT030 SCT050=



000
FTUS42 TJSJ 232300
TAFNCM
TAF
TNCM 232331Z 2400/2424 10013G20KT P6SM VCSH BKN020
     FM240100 09009KT P6SM VCSH SCT018 SCT035
     FM241500 10013G25KT P6SM VCSH BKN019=



000
FTUS42 TJSJ 232300
TAFJBQ
TAF
TJBQ 232331Z 2400/2424 09015G23KT P6SM VCSH SCT030 BKN050
     FM240100 12010KT P6SM SKC
     FM241400 08012G22KT P6SM FEW025
     FM241700 09016G26KT P6SM VCSH SCT020 SCT030
      AMD NOT SKED 2402/2411=



000
FTUS42 TJSJ 232300
TAFIST
TAF
TIST 232331Z 2400/2424 09013G20KT P6SM VCSH FEW030
     FM240100 10012KT P6SM FEW050
     FM241400 09012G25KT P6SM VCSH SCT030 BKN050
     FM242300 09010G20KT P6SM -SHRA SCT025 SCT050=



000
FTUS42 TJSJ 232300
TAFJPS
TAF
TJPS 232331Z 2400/2424 08010KT P6SM FEW030
     FM241500 13012G20KT P6SM VCSH SCT030 SCT060
     FM242200 05005KT P6SM VCSH SCT020 BKN050
      AMD NOT SKED TIL 240300=



000
FTUS42 TJSJ 232300
TAFJSJ
TAF
TJSJ 232331Z 2400/2424 06015G20KT P6SM SCT020 SCT040
     FM241300 08012KT P6SM VCSH SCT025
     FM241600 06015G25KT P6SM VCSH SCT030 SCT050
     FM242230 09010KT P6SM -SHRA SCT020 BKN050=



000
FTUS42 TJSJ 232300
TAFKPK
TAF
TKPK 232331Z 2400/2424 07013KT P6SM FEW019
     FM240100 08009KT P6SM VCSH SCT022 BKN045
     FM241500 07015G25KT P6SM VCSH BKN018
      AMD NOT SKED 2402/2411=



000
FTUS42 TJSJ 232000 AAA
TAFIST
TAF AMD
TIST 232007Z 2320/2418 08013G18KT P6SM VCSH FEW030 SCT040
     FM232300 09010KT P6SM FEW025
     FM241300 13012KT P6SM SCT025=



000
FTUS42 TJSJ 232000 AAA
TAFJBQ
TAF AMD
TJBQ 232006Z 2320/2418 08015G26KT P6SM VCSH SCT030 BKN050
     FM232230 11010KT P6SM FEW025
     FM241400 08012KT P6SM SCT025=



000
FTUS42 TJSJ 232000 AAB
TAFJMZ
TAF AMD
TJMZ 232005Z 2320/2418 09006KT P6SM VCSH SCT025 BKN040
     FM232330 VRB05KT P6SM SCT025 SCT070
     FM241530 29010KT P6SM SCT025 BKN040
      AMD NOT SKED 2323/2413=



000
FTUS42 TJSJ 231900 AAA
TAFISX
TAF AMD
TISX 231922Z 2319/2418 08015G24KT P6SM SCT025 SCT050
     FM232300 08010KT P6SM FEW025
     FM241300 11013KT P6SM SCT025=



000
FTUS42 TJSJ 231800 AAA
TAFJMZ
TAF AMD
TJMZ 231849Z 2319/2418 VRB06KT P6SM VCSH SCT025 BKN040
      TEMPO 2319/2321 2SM +TSRA OVC025CB
     FM232330 VRB05KT P6SM SCT025 SCT070
     FM241530 29010KT P6SM SCT025 BKN040
      AMD NOT SKED 2323/2413=



000
FTUS42 TJSJ 231700
TAFNCM
TAF
TNCM 231730Z 2318/2418 10013G20KT P6SM SCT022
     FM232230 09009KT P6SM VCSH SCT018 SCT035=



000
FTUS42 TJSJ 231700
TAFJMZ
TAF
TJMZ 231730Z 2318/2418 09008KT P6SM VCSH SCT025 BKN040
     FM232330 VRB05KT P6SM SCT025 SCT070
     FM241530 29010KT P6SM SCT025 BKN040
      AMD NOT SKED 2323/2413=



000
FTUS42 TJSJ 231700
TAFIST
TAF
TIST 231730Z 2318/2418 11013G18KT P6SM FEW025 SCT050
     FM232300 09010KT P6SM FEW025
     FM241300 13012KT P6SM SCT025=



000
FTUS42 TJSJ 231700
TAFJPS
TAF
TJPS 231730Z 2318/2418 13012G20KT P6SM FEW030 FEW060
     FM232230 05005KT P6SM SKC
     FM241500 13012KT P6SM SCT030 SCT060=



000
FTUS42 TJSJ 231700
TAFJBQ
TAF
TJBQ 231730Z 2318/2418 08015G25KT P6SM FEW030 SCT050
     FM232230 11010KT P6SM FEW025
     FM241400 08012KT P6SM SCT025=



000
FTUS42 TJSJ 231700
TAFJSJ
TAF
TJSJ 231730Z 2318/2418 06015G20KT P6SM FEW030 SCT050
     FM232230 09005KT P6SM FEW025
     FM241300 08012KT P6SM SCT025=



000
FTUS42 TJSJ 231700
TAFKPK
TAF
TKPK 231730Z 2318/2418 07013KT P6SM SCT020
     FM232230 09009KT P6SM VCSH SCT018 SCT035=



000
FTUS42 TJSJ 231700
TAFISX
TAF
TISX 231730Z 2318/2418 11015G20KT P6SM SCT025 SCT050
     FM232300 08010KT P6SM FEW025
     FM241300 11013KT P6SM SCT025=



000
FTUS42 TJSJ 231100
TAFKPK
TAF
TKPK 231131Z 2312/2412 07013KT P6SM SCT017
     FM231300 09013G18KT P6SM SCT020
     FM232230 09009KT P6SM VCSH SCT018 SCT035=



000
FTUS42 TJSJ 231100
TAFIST
TAF
TIST 231131Z 2312/2412 10007KT P6SM SKC
     FM231300 13013G18KT P6SM FEW025 SCT050
     FM232300 09010KT P6SM FEW025=



000
FTUS42 TJSJ 231100
TAFJPS
TAF
TJPS 231131Z 2312/2412 00000KT P6SM FEW025 SCT050
     FM231430 14015G20KT P6SM FEW030 FEW060
     FM232230 05005KT P6SM SKC=



000
FTUS42 TJSJ 231100
TAFISX
TAF
TISX 231131Z 2312/2412 07008KT P6SM SKC
     FM231300 11013G18KT P6SM SCT025 SCT050
     FM232300 08010KT P6SM FEW025=



000
FTUS42 TJSJ 231100
TAFNCM
TAF
TNCM 231131Z 2312/2412 09010KT P6SM FEW018
     FM231300 10013G18KT P6SM SCT022
     FM232230 09009KT P6SM VCSH SCT018 SCT035=



000
FTUS42 TJSJ 231100
TAFJMZ
TAF
TJMZ 231131Z 2312/2412 VRB05KT P6SM FEW025 SCT060
     FM231630 27010KT P6SM VCSH SCT025 BKN040
     FM232330 VRB05KT P6SM SCT025 SCT070=



000
FTUS42 TJSJ 231100
TAFJBQ
TAF
TJBQ 231131Z 2312/2412 11010KT P6SM FEW025 SCT060
     FM231430 08015G25KT P6SM FEW030 SCT050
     FM232230 11010KT P6SM FEW025=



000
FTUS42 TJSJ 231100
TAFJSJ
TAF
TJSJ 231131Z 2312/2412 08006KT P6SM FEW035 SCT060
     FM231430 07013G18KT P6SM FEW030 SCT050
     FM232230 09005KT P6SM FEW025=



000
FTUS42 TJSJ 230500
TAFJMZ
TAF
TJMZ 230531Z 2306/2406 VRB05KT P6SM FEW025 SCT060
     FM231630 27010KT P6SM VCSH SCT025 BKN040
      AMD NOT SKED TIL 231100=



000
FTUS42 TJSJ 230500
TAFIST
TAF
TIST 230531Z 2306/2406 10007KT P6SM VCSH FEW060
     FM231300 13013G18KT P6SM FEW025 SCT050
     FM232300 09010KT P6SM FEW025=



000
FTUS42 TJSJ 230500
TAFJPS
TAF
TJPS 230531Z 2306/2406 00000KT P6SM FEW025 SCT050
     FM231430 14015G20KT P6SM FEW030 FEW060
     FM232230 05005KT P6SM SKC=



000
FTUS42 TJSJ 230500
TAFJBQ
TAF
TJBQ 230531Z 2306/2406 11010KT P6SM FEW025 SCT060
     FM231430 08015G25KT P6SM FEW030 SCT050
     FM232230 11010KT P6SM FEW025=



000
FTUS42 TJSJ 230500
TAFJSJ
TAF
TJSJ 230531Z 2306/2406 08012KT P6SM VCSH SCT060
     FM231430 07013G18KT P6SM FEW030 SCT050
     FM232230 09005KT P6SM FEW025=



000
FTUS42 TJSJ 230500
TAFISX
TAF
TISX 230531Z 2306/2406 07009KT P6SM VCSH FEW019
     FM231300 11013G18KT P6SM SCT025 SCT050
     FM232300 08010KT P6SM FEW025=



000
FTUS42 TJSJ 230500
TAFNCM
TAF
TNCM 230531Z 2306/2406 09008KT P6SM SCT020
     FM231300 10013G18KT P6SM SCT022=



000
FTUS42 TJSJ 230500
TAFKPK
TAF
TKPK 230531Z 2306/2406 08010KT P6SM SCT020
     FM231300 09013G18KT P6SM SCT022
      AMD NOT SKED TIL 231200=



000
FTUS42 TJSJ 222300 RRA
TAFNCM
TAF
TNCM 222342Z 2300/2324 09010KT P6SM SCT020 SCT040
     FM231300 10013G18KT P6SM SCT022=



000
FTUS42 TJSJ 222300 RRA
TAFJMZ
TAF
TJMZ 222342Z 2300/2324 VRB05KT P6SM FEW025 SCT060
     FM231630 27010KT P6SM VCSH SCT025 BKN040
      AMD NOT SKED TIL 231100=



000
FTUS42 TJSJ 222300 RRA
TAFJPS
TAF
TJPS 222342Z 2300/2324 05005KT P6SM FEW025 SCT060
     FM231430 14015G20KT P6SM FEW030 FEW060
     FM232230 05005KT P6SM SKC
      AMD NOT SKED TIL 230300=



000
FTUS42 TJSJ 222300 RRA
TAFKPK
TAF
TKPK 222342Z 2300/2324 08010KT P6SM SCT020
     FM231300 09013G18KT P6SM SCT022
      AMD NOT SKED 2302/2312=



000
FTUS42 TJSJ 222300 RRA
TAFIST
TAF
TIST 222342Z 2300/2324 09010KT P6SM VCSH FEW025 SCT040
     FM231300 13013G18KT P6SM FEW025 SCT050
     FM232300 09010KT P6SM FEW025=



000
FTUS42 TJSJ 222300 RRA
TAFJSJ
TAF
TJSJ 222342Z 2300/2324 09005KT P6SM VCSH FEW025 SCT060
     FM231430 07013G18KT P6SM FEW030 SCT050
     FM232230 09005KT P6SM FEW025=



000
FTUS42 TJSJ 222300 RRA
TAFJBQ
TAF
TJBQ 222342Z 2300/2324 11010KT P6SM FEW025 SCT060
     FM231430 08015G25KT P6SM FEW030 SCT050
     FM232230 11010KT P6SM FEW025=



000
FTUS42 TJSJ 222300 RRA
TAFISX
TAF
TISX 222342Z 2300/2324 08010KT P6SM VCSH FEW025 SCT040
     FM231300 11013G18KT P6SM SCT025 SCT050
     FM232300 08010KT P6SM FEW025=



    US Dept of Commerce
    National Oceanic and Atmospheric Administration
    National Weather Service
    1325 East West Highway
    Silver Spring, MD 20910
    Page Author: NWS Internet Services Team
Disclaimer
Information Quality
Credits
Glossary
Privacy Policy
Freedom of Information Act (FOIA)
About Us
Career Opportunities